createdAt,value
2016-07-22T00:00:47.897Z,20.37
2016-07-22T00:01:47.897Z,20.27
2016-07-22T00:02:47.898Z,20.33
2016-07-22T00:03:47.909Z,20.32
2016-07-22T00:04:47.909Z,20.33
2016-07-22T00:05:47.905Z,20.34
2016-07-22T00:06:47.908Z,20.33
2016-07-22T00:07:47.910Z,20.21
2016-07-22T00:08:47.908Z,20.21
2016-07-22T00:09:47.913Z,20.22
2016-07-22T00:10:47.913Z,20.24
2016-07-22T00:11:47.917Z,20.22
2016-07-22T00:12:47.929Z,20.15
2016-07-22T00:13:47.917Z,20.21
2016-07-22T00:14:47.922Z,20.24
2016-07-22T00:15:47.936Z,20.24
2016-07-22T00:16:47.926Z,20.22
2016-07-22T00:17:47.931Z,20.17
2016-07-22T00:18:47.930Z,20.24
2016-07-22T00:19:47.934Z,20.26
2016-07-22T00:20:47.938Z,20.24
2016-07-22T00:21:47.939Z,20.19
2016-07-22T00:22:47.942Z,20.19
2016-07-22T00:23:47.938Z,20.15
2016-07-22T00:24:47.951Z,20.14
2016-07-22T00:25:47.943Z,20.17
2016-07-22T00:26:47.946Z,20.19
2016-07-22T00:27:47.951Z,20.11
2016-07-22T00:28:47.951Z,20.08
2016-07-22T00:29:47.950Z,20.02
2016-07-22T00:30:47.955Z,19.93
2016-07-22T00:31:47.958Z,19.99
2016-07-22T00:32:47.959Z,19.94
2016-07-22T00:33:47.971Z,19.81
2016-07-22T00:34:47.959Z,19.94
2016-07-22T00:35:47.963Z,19.79
2016-07-22T00:36:47.963Z,19.81
2016-07-22T00:37:47.971Z,19.79
2016-07-22T00:38:47.966Z,19.77
2016-07-22T00:39:47.972Z,19.78
2016-07-22T00:40:47.972Z,19.81
2016-07-22T00:41:47.976Z,19.78
2016-07-22T00:42:47.975Z,19.78
2016-07-22T00:43:47.987Z,19.78
2016-07-22T00:44:47.980Z,19.81
2016-07-22T00:45:47.979Z,19.89
2016-07-22T00:46:47.984Z,19.79
2016-07-22T00:47:47.993Z,19.81
2016-07-22T00:48:47.992Z,19.81
2016-07-22T00:49:47.996Z,19.78
2016-07-22T00:50:47.992Z,19.79
2016-07-22T00:51:47.997Z,19.81
2016-07-22T00:52:47.996Z,19.79
2016-07-22T00:53:47.997Z,19.85
2016-07-22T00:54:48.000Z,19.79
2016-07-22T00:55:48.001Z,19.84
2016-07-22T00:56:48.005Z,19.81
2016-07-22T00:57:48.005Z,19.84
2016-07-22T00:58:48.008Z,19.81
2016-07-22T00:59:48.012Z,19.82
2016-07-22T01:00:48.013Z,19.72
2016-07-22T01:01:47.293Z,19.85
2016-07-22T01:02:47.293Z,19.72
2016-07-22T01:03:48.016Z,19.78
2016-07-22T01:04:48.018Z,19.7
2016-07-22T01:05:48.021Z,19.72
2016-07-22T01:06:48.020Z,19.72
2016-07-22T01:07:48.025Z,19.66
2016-07-22T01:08:48.025Z,19.53
2016-07-22T01:09:48.029Z,19.53
2016-07-22T01:10:48.029Z,19.55
2016-07-22T01:11:48.029Z,19.57
2016-07-22T01:12:48.042Z,19.49
2016-07-22T01:13:48.033Z,19.42
2016-07-22T01:14:48.038Z,19.37
2016-07-22T01:15:48.037Z,19.37
2016-07-22T01:16:48.042Z,19.39
2016-07-22T01:17:48.041Z,19.27
2016-07-22T01:18:48.045Z,19.24
2016-07-22T01:19:48.046Z,19.19
2016-07-22T01:20:48.045Z,19.17
2016-07-22T01:21:48.050Z,19.15
2016-07-22T01:22:48.049Z,19.07
2016-07-22T01:23:48.054Z,19.05
2016-07-22T01:24:48.054Z,19.08
2016-07-22T01:25:48.058Z,19.04
2016-07-22T01:26:48.057Z,19.04
2016-07-22T01:27:48.062Z,18.94
2016-07-22T01:28:48.062Z,19
2016-07-22T01:29:48.076Z,18.94
2016-07-22T01:30:48.065Z,18.97
2016-07-22T01:31:48.070Z,18.89
2016-07-22T01:32:48.073Z,18.92
2016-07-22T01:33:48.073Z,18.97
2016-07-22T01:34:48.074Z,19.01
2016-07-22T01:35:48.074Z,19
2016-07-22T01:36:48.078Z,18.94
2016-07-22T01:37:48.078Z,19.11
2016-07-22T01:38:48.082Z,19.05
2016-07-22T01:39:48.082Z,19.11
2016-07-22T01:40:48.086Z,19.09
2016-07-22T01:41:48.086Z,19.15
2016-07-22T01:42:48.086Z,19.2
2016-07-22T01:43:48.090Z,19.17
2016-07-22T01:44:48.090Z,19.16
2016-07-22T01:45:48.094Z,19.17
2016-07-22T01:46:48.103Z,19.17
2016-07-22T01:47:48.098Z,19.19
2016-07-22T01:48:48.098Z,19.2
2016-07-22T01:49:48.102Z,19.15
2016-07-22T01:50:48.103Z,19.15
2016-07-22T01:51:48.110Z,19
2016-07-22T01:52:48.107Z,18.98
2016-07-22T01:53:48.107Z,18.98
2016-07-22T01:54:48.111Z,19.01
2016-07-22T01:55:48.110Z,18.89
2016-07-22T01:56:48.111Z,18.88
2016-07-22T01:57:48.115Z,18.85
2016-07-22T01:58:48.111Z,18.81
2016-07-22T01:59:48.119Z,18.78
2016-07-22T02:00:48.135Z,18.81
2016-07-22T02:01:48.122Z,18.7
2016-07-22T02:02:48.123Z,18.71
2016-07-22T02:03:48.127Z,18.68
2016-07-22T02:04:48.127Z,18.64
2016-07-22T02:05:48.131Z,18.68
2016-07-22T02:06:48.131Z,18.64
2016-07-22T02:07:48.135Z,18.64
2016-07-22T02:08:48.135Z,18.64
2016-07-22T02:09:48.136Z,18.52
2016-07-22T02:10:48.139Z,18.53
2016-07-22T02:11:48.140Z,18.6
2016-07-22T02:12:48.144Z,18.46
2016-07-22T02:13:48.143Z,18.45
2016-07-22T02:14:48.144Z,18.45
2016-07-22T02:15:48.143Z,18.42
2016-07-22T02:16:48.168Z,18.43
2016-07-22T02:17:48.147Z,18.43
2016-07-22T02:18:48.151Z,18.42
2016-07-22T02:19:48.156Z,18.34
2016-07-22T02:20:48.156Z,18.26
2016-07-22T02:21:48.160Z,18.36
2016-07-22T02:22:48.162Z,18.3
2016-07-22T02:23:48.168Z,18.39
2016-07-22T02:24:48.164Z,18.34
2016-07-22T02:25:48.165Z,18.41
2016-07-22T02:26:48.168Z,18.36
2016-07-22T02:27:48.167Z,18.37
2016-07-22T02:28:48.173Z,18.36
2016-07-22T02:29:48.171Z,18.37
2016-07-22T02:30:48.185Z,18.45
2016-07-22T02:31:48.180Z,18.48
2016-07-22T02:32:48.188Z,18.48
2016-07-22T02:33:48.184Z,18.51
2016-07-22T02:34:48.180Z,18.52
2016-07-22T02:35:48.184Z,18.53
2016-07-22T02:36:48.193Z,18.46
2016-07-22T02:37:47.464Z,18.57
2016-07-22T02:38:48.188Z,18.55
2016-07-22T02:39:48.188Z,18.6
2016-07-22T02:40:48.193Z,18.64
2016-07-22T02:41:48.193Z,18.7
2016-07-22T02:42:48.197Z,18.67
2016-07-22T02:43:48.194Z,18.67
2016-07-22T02:44:48.200Z,18.68
2016-07-22T02:45:48.201Z,18.66
2016-07-22T02:46:48.200Z,18.64
2016-07-22T02:47:48.309Z,18.64
2016-07-22T02:48:48.204Z,18.6
2016-07-22T02:49:48.208Z,18.51
2016-07-22T02:50:48.209Z,18.46
2016-07-22T02:51:48.218Z,18.52
2016-07-22T02:52:48.213Z,18.51
2016-07-22T02:53:48.211Z,18.49
2016-07-22T02:54:48.217Z,18.52
2016-07-22T02:55:48.217Z,18.64
2016-07-22T02:56:48.217Z,18.71
2016-07-22T02:57:48.221Z,18.78
2016-07-22T02:58:48.222Z,18.74
2016-07-22T02:59:48.224Z,18.7
2016-07-22T03:00:48.225Z,18.7
2016-07-22T03:01:48.230Z,18.66
2016-07-22T03:02:48.229Z,18.48
2016-07-22T03:03:48.234Z,18.58
2016-07-22T03:04:48.233Z,18.48
2016-07-22T03:05:48.233Z,18.43
2016-07-22T03:06:48.242Z,18.48
2016-07-22T03:07:48.237Z,18.34
2016-07-22T03:08:48.242Z,18.34
2016-07-22T03:09:48.241Z,18.36
2016-07-22T03:10:48.244Z,18.34
2016-07-22T03:11:48.245Z,18.19
2016-07-22T03:12:48.245Z,18.21
2016-07-22T03:13:48.250Z,18.27
2016-07-22T03:14:48.249Z,18.18
2016-07-22T03:15:48.254Z,18.19
2016-07-22T03:16:48.253Z,18.13
2016-07-22T03:17:47.533Z,18.15
2016-07-22T03:18:47.537Z,18.11
2016-07-22T03:19:48.258Z,18.06
2016-07-22T03:20:47.541Z,18.03
2016-07-22T03:21:48.261Z,18.11
2016-07-22T03:22:48.261Z,18.08
2016-07-22T03:23:47.542Z,18.06
2016-07-22T03:24:48.266Z,18.09
2016-07-22T03:25:48.278Z,18.02
2016-07-22T03:26:48.269Z,17.93
2016-07-22T03:27:48.274Z,17.9
2016-07-22T03:28:48.274Z,17.98
2016-07-22T03:29:48.274Z,17.97
2016-07-22T03:30:48.278Z,17.9
2016-07-22T03:31:48.277Z,18
2016-07-22T03:32:48.278Z,17.91
2016-07-22T03:33:48.278Z,17.95
2016-07-22T03:34:48.282Z,17.97
2016-07-22T03:35:48.286Z,17.94
2016-07-22T03:36:48.286Z,17.97
2016-07-22T03:37:48.299Z,17.93
2016-07-22T03:38:48.291Z,17.95
2016-07-22T03:39:48.290Z,17.91
2016-07-22T03:40:48.293Z,17.93
2016-07-22T03:41:48.295Z,18
2016-07-22T03:42:47.574Z,17.98
2016-07-22T03:43:48.298Z,18.09
2016-07-22T03:44:48.299Z,18.15
2016-07-22T03:45:48.303Z,18.28
2016-07-22T03:46:48.301Z,18.31
2016-07-22T03:47:48.305Z,18.27
2016-07-22T03:48:48.306Z,18.33
2016-07-22T03:49:48.305Z,18.41
2016-07-22T03:50:48.310Z,18.46
2016-07-22T03:51:48.309Z,18.55
2016-07-22T03:52:48.314Z,18.58
2016-07-22T03:53:47.594Z,18.71
2016-07-22T03:54:48.313Z,18.67
2016-07-22T03:55:48.318Z,18.71
2016-07-22T03:56:48.318Z,18.74
2016-07-22T03:57:48.323Z,18.78
2016-07-22T03:58:48.322Z,18.82
2016-07-22T03:59:48.323Z,18.92
2016-07-22T04:00:48.327Z,18.85
2016-07-22T04:01:48.326Z,18.89
2016-07-22T04:02:48.330Z,18.91
2016-07-22T04:03:48.330Z,18.85
2016-07-22T04:04:48.330Z,18.98
2016-07-22T04:05:48.334Z,18.89
2016-07-22T04:06:48.334Z,18.91
2016-07-22T04:07:48.335Z,18.94
2016-07-22T04:08:48.339Z,19.08
2016-07-22T04:09:48.338Z,19.16
2016-07-22T04:10:48.342Z,19.16
2016-07-22T04:11:48.342Z,19.32
2016-07-22T04:12:48.343Z,19.44
2016-07-22T04:13:48.354Z,19.62
2016-07-22T04:14:48.346Z,19.59
2016-07-22T04:15:48.351Z,19.78
2016-07-22T04:16:48.351Z,19.84
2016-07-22T04:17:48.350Z,20
2016-07-22T04:18:48.355Z,20.08
2016-07-22T04:19:48.354Z,20.17
2016-07-22T04:20:48.356Z,20.08
2016-07-22T04:21:48.359Z,20.17
2016-07-22T04:22:48.359Z,20.24
2016-07-22T04:23:48.366Z,20.24
2016-07-22T04:24:48.362Z,20.26
2016-07-22T04:25:48.362Z,20.3
2016-07-22T04:26:48.367Z,20.44
2016-07-22T04:27:48.367Z,20.52
2016-07-22T04:28:48.370Z,20.5
2016-07-22T04:29:48.383Z,20.49
2016-07-22T04:30:48.380Z,20.44
2016-07-22T04:31:48.374Z,20.42
2016-07-22T04:32:48.375Z,20.42
2016-07-22T04:33:48.379Z,20.42
2016-07-22T04:34:48.379Z,20.29
2016-07-22T04:35:48.378Z,20.29
2016-07-22T04:36:48.388Z,20.36
2016-07-22T04:37:48.383Z,20.33
2016-07-22T04:38:48.383Z,20.33
2016-07-22T04:39:48.387Z,20.33
2016-07-22T04:40:48.400Z,20.33
2016-07-22T04:41:48.391Z,20.44
2016-07-22T04:42:48.391Z,20.36
2016-07-22T04:43:48.396Z,20.49
2016-07-22T04:44:48.395Z,20.44
2016-07-22T04:45:48.399Z,20.55
2016-07-22T04:46:48.404Z,20.53
2016-07-22T04:47:48.399Z,20.48
2016-07-22T04:48:48.404Z,20.5
2016-07-22T04:49:48.404Z,20.48
2016-07-22T04:50:48.404Z,20.44
2016-07-22T04:51:48.416Z,20.39
2016-07-22T04:52:48.408Z,20.34
2016-07-22T04:53:48.413Z,20.48
2016-07-22T04:54:48.416Z,20.42
2016-07-22T04:55:48.412Z,20.5
2016-07-22T04:56:48.417Z,20.44
2016-07-22T04:57:48.412Z,20.48
2016-07-22T04:58:48.421Z,20.48
2016-07-22T04:59:48.420Z,20.46
2016-07-22T05:00:48.422Z,20.49
2016-07-22T05:01:48.425Z,20.42
2016-07-22T05:02:48.433Z,20.33
2016-07-22T05:03:48.429Z,20.46
2016-07-22T05:04:48.429Z,20.29
2016-07-22T05:05:48.429Z,20.34
2016-07-22T05:06:48.432Z,20.5
2016-07-22T05:07:48.433Z,20.55
2016-07-22T05:08:48.437Z,20.73
2016-07-22T05:09:48.441Z,20.89
2016-07-22T05:10:48.441Z,21.1
2016-07-22T05:11:48.445Z,21.13
2016-07-22T05:12:48.441Z,21.1
2016-07-22T05:13:48.445Z,21.17
2016-07-22T05:14:48.445Z,21.13
2016-07-22T05:15:48.445Z,21.08
2016-07-22T05:16:48.449Z,21.07
2016-07-22T05:17:48.450Z,21.01
2016-07-22T05:18:48.453Z,20.86
2016-07-22T05:19:48.454Z,20.85
2016-07-22T05:20:48.453Z,20.88
2016-07-22T05:21:48.457Z,20.88
2016-07-22T05:22:48.469Z,20.77
2016-07-22T05:23:48.462Z,20.75
2016-07-22T05:24:48.461Z,20.75
2016-07-22T05:25:48.462Z,20.74
2016-07-22T05:26:48.465Z,20.74
2016-07-22T05:27:48.474Z,20.82
2016-07-22T05:28:48.465Z,20.88
2016-07-22T05:29:48.465Z,20.96
2016-07-22T05:30:48.478Z,21.08
2016-07-22T05:31:48.473Z,21.23
2016-07-22T05:32:48.474Z,21.4
2016-07-22T05:33:48.478Z,21.45
2016-07-22T05:34:48.478Z,21.62
2016-07-22T05:35:48.491Z,21.63
2016-07-22T05:36:47.762Z,21.65
2016-07-22T05:37:48.482Z,21.75
2016-07-22T05:38:48.486Z,21.88
2016-07-22T05:39:48.486Z,22.03
2016-07-22T05:40:48.487Z,22.25
2016-07-22T05:41:48.490Z,22.28
2016-07-22T05:42:48.487Z,22.37
2016-07-22T05:43:48.541Z,22.26
2016-07-22T05:44:48.494Z,22.33
2016-07-22T05:45:48.506Z,22.31
2016-07-22T05:46:48.506Z,22.28
2016-07-22T05:47:48.499Z,22.31
2016-07-22T05:48:48.503Z,22.28
2016-07-22T05:49:48.502Z,22.22
2016-07-22T05:50:48.510Z,22.25
2016-07-22T05:51:48.505Z,22.3
2016-07-22T05:52:48.518Z,22.28
2016-07-22T05:53:48.506Z,22.25
2016-07-22T05:54:48.510Z,22.28
2016-07-22T05:55:48.511Z,22.26
2016-07-22T05:56:48.518Z,22.3
2016-07-22T05:57:48.515Z,22.21
2016-07-22T05:58:48.514Z,22.31
2016-07-22T05:59:48.519Z,22.25
2016-07-22T06:00:48.519Z,22.37
2016-07-22T06:01:48.523Z,22.51
2016-07-22T06:02:48.524Z,22.56
2016-07-22T06:03:48.526Z,22.71
2016-07-22T06:04:48.527Z,23.02
2016-07-22T06:05:48.530Z,23.32
2016-07-22T06:06:48.532Z,23.62
2016-07-22T06:07:48.536Z,24.28
2016-07-22T06:08:48.535Z,24.89
2016-07-22T06:09:48.535Z,25.7
2016-07-22T06:10:48.535Z,26.55
2016-07-22T06:11:48.539Z,27.38
2016-07-22T06:12:48.543Z,28.27
2016-07-22T06:13:48.542Z,28.94
2016-07-22T06:14:48.551Z,29.49
2016-07-22T06:15:48.543Z,29.81
2016-07-22T06:16:48.547Z,30.18
2016-07-22T06:17:48.547Z,30.7
2016-07-22T06:18:48.552Z,30.89
2016-07-22T06:19:48.556Z,31.08
2016-07-22T06:20:48.555Z,31.13
2016-07-22T06:21:48.556Z,31.17
2016-07-22T06:22:48.560Z,31.22
2016-07-22T06:23:48.560Z,31.39
2016-07-22T06:24:48.572Z,31.44
2016-07-22T06:25:48.568Z,31.5
2016-07-22T06:26:48.564Z,31.5
2016-07-22T06:27:48.568Z,31.47
2016-07-22T06:28:48.568Z,31.35
2016-07-22T06:29:48.572Z,31.23
2016-07-22T06:30:48.572Z,30.96
2016-07-22T06:31:48.571Z,30.85
2016-07-22T06:32:48.580Z,30.77
2016-07-22T06:33:48.576Z,30.65
2016-07-22T06:34:48.585Z,30.58
2016-07-22T06:35:48.580Z,30.56
2016-07-22T06:36:48.584Z,30.63
2016-07-22T06:37:48.585Z,30.95
2016-07-22T06:38:48.585Z,31.59
2016-07-22T06:39:47.868Z,32.17
2016-07-22T06:40:48.593Z,33.04
2016-07-22T06:41:48.592Z,33.88
2016-07-22T06:42:48.593Z,34.6
2016-07-22T06:43:48.597Z,35.5
2016-07-22T06:44:48.596Z,36.24
2016-07-22T06:45:48.601Z,36.65
2016-07-22T06:46:48.596Z,37.16
2016-07-22T06:47:48.601Z,37.63
2016-07-22T06:48:48.606Z,38.02
2016-07-22T06:49:48.605Z,38
2016-07-22T06:50:48.608Z,37.76
2016-07-22T06:51:48.608Z,37.56
2016-07-22T06:52:48.616Z,37.23
2016-07-22T06:53:48.613Z,37.1
2016-07-22T06:54:48.617Z,36.85
2016-07-22T06:55:48.617Z,36.62
2016-07-22T06:56:48.621Z,36.45
2016-07-22T06:57:48.621Z,36.6
2016-07-22T06:58:48.621Z,36.54
2016-07-22T06:59:48.630Z,36.45
2016-07-22T07:00:48.625Z,36.16
2016-07-22T07:01:48.630Z,36
2016-07-22T07:02:47.905Z,35.6
2016-07-22T07:03:48.629Z,35.38
2016-07-22T07:04:48.638Z,35.42
2016-07-22T07:05:48.638Z,35.78
2016-07-22T07:06:48.637Z,36.24
2016-07-22T07:07:48.642Z,36.65
2016-07-22T07:08:48.642Z,37.11
2016-07-22T07:09:48.645Z,37.6
2016-07-22T07:10:48.646Z,38.1
2016-07-22T07:11:48.645Z,38.7
2016-07-22T07:12:48.649Z,39.25
2016-07-22T07:13:48.654Z,39.75
2016-07-22T07:14:48.654Z,40.07
2016-07-22T07:15:48.658Z,40.4
2016-07-22T07:16:48.665Z,40.36
2016-07-22T07:17:48.661Z,40.12
2016-07-22T07:18:48.662Z,39.61
2016-07-22T07:19:48.665Z,39.19
2016-07-22T07:20:48.669Z,38.96
2016-07-22T07:21:48.670Z,38.98
2016-07-22T07:22:48.670Z,39.14
2016-07-22T07:23:48.674Z,39.37
2016-07-22T07:24:48.674Z,39.71
2016-07-22T07:25:48.678Z,40.05
2016-07-22T07:26:48.682Z,40.17
2016-07-22T07:27:48.682Z,40.13
2016-07-22T07:28:48.683Z,39.75
2016-07-22T07:29:48.686Z,39.17
2016-07-22T07:30:48.691Z,38.51
2016-07-22T07:31:48.690Z,37.85
2016-07-22T07:32:48.693Z,37.33
2016-07-22T07:33:48.695Z,36.73
2016-07-22T07:34:48.694Z,36.26
2016-07-22T07:35:48.694Z,35.82
2016-07-22T07:36:48.703Z,35.37
2016-07-22T07:37:48.702Z,35.08
2016-07-22T07:38:48.706Z,34.63
2016-07-22T07:39:48.706Z,34.16
2016-07-22T07:40:48.706Z,33.94
2016-07-22T07:41:48.711Z,33.63
2016-07-22T07:42:48.719Z,33.33
2016-07-22T07:43:48.047Z,33.2
2016-07-22T07:44:48.719Z,33.03
2016-07-22T07:45:48.718Z,32.82
2016-07-22T07:46:48.723Z,32.56
2016-07-22T07:47:48.726Z,32.37
2016-07-22T07:48:48.727Z,32.24
2016-07-22T07:49:48.731Z,32.08
2016-07-22T07:50:48.731Z,31.93
2016-07-22T07:51:48.735Z,31.77
2016-07-22T07:52:48.730Z,31.82
2016-07-22T07:53:48.739Z,31.66
2016-07-22T07:54:48.742Z,31.52
2016-07-22T07:55:48.759Z,31.42
2016-07-22T07:56:48.742Z,31.29
2016-07-22T07:57:48.747Z,31.17
2016-07-22T07:58:48.750Z,31.08
2016-07-22T07:59:48.751Z,30.95
2016-07-22T08:00:48.754Z,30.78
2016-07-22T08:01:48.755Z,30.71
2016-07-22T08:02:48.758Z,30.56
2016-07-22T08:03:48.758Z,30.48
2016-07-22T08:04:48.764Z,30.38
2016-07-22T08:05:48.767Z,30.24
2016-07-22T08:06:48.767Z,30.11
2016-07-22T08:07:48.767Z,30.02
2016-07-22T08:08:48.774Z,29.9
2016-07-22T08:09:48.775Z,29.86
2016-07-22T08:10:48.779Z,29.8
2016-07-22T08:11:48.779Z,29.76
2016-07-22T08:12:48.796Z,29.68
2016-07-22T08:13:48.783Z,29.64
2016-07-22T08:14:48.783Z,29.69
2016-07-22T08:15:48.795Z,29.71
2016-07-22T08:16:48.791Z,29.74
2016-07-22T08:17:48.792Z,29.77
2016-07-22T08:18:48.796Z,29.89
2016-07-22T08:19:48.796Z,29.95
2016-07-22T08:20:48.795Z,30.03
2016-07-22T08:21:48.799Z,29.92
2016-07-22T08:22:48.812Z,29.98
2016-07-22T08:23:48.803Z,29.94
2016-07-22T08:24:48.808Z,29.96
2016-07-22T08:25:48.808Z,29.96
2016-07-22T08:26:48.812Z,29.96
2016-07-22T08:27:48.816Z,30.02
2016-07-22T08:28:48.816Z,29.92
2016-07-22T08:29:48.820Z,29.94
2016-07-22T08:30:48.824Z,29.96
2016-07-22T08:31:48.824Z,29.96
2016-07-22T08:32:48.824Z,29.94
2016-07-22T08:33:48.845Z,30.01
2016-07-22T08:34:48.832Z,29.95
2016-07-22T08:35:48.832Z,29.98
2016-07-22T08:36:48.836Z,30.03
2016-07-22T08:37:48.836Z,30.11
2016-07-22T08:38:48.853Z,30.14
2016-07-22T08:39:48.840Z,30.32
2016-07-22T08:40:48.844Z,30.52
2016-07-22T08:41:48.845Z,30.58
2016-07-22T08:42:48.849Z,30.65
2016-07-22T08:43:48.848Z,30.74
2016-07-22T08:44:48.853Z,30.88
2016-07-22T08:45:48.856Z,30.99
2016-07-22T08:46:48.857Z,31.08
2016-07-22T08:47:48.861Z,31.05
2016-07-22T08:48:48.856Z,31.07
2016-07-22T08:49:48.864Z,31.2
2016-07-22T08:50:48.865Z,31.23
2016-07-22T08:51:48.868Z,31.42
2016-07-22T08:52:48.873Z,31.59
2016-07-22T08:53:48.152Z,31.59
2016-07-22T08:54:48.876Z,31.6
2016-07-22T08:55:48.877Z,31.81
2016-07-22T08:56:48.877Z,32.04
2016-07-22T08:57:48.885Z,32.34
2016-07-22T08:58:48.885Z,32.78
2016-07-22T08:59:48.888Z,33.12
2016-07-22T09:00:48.888Z,33.45
2016-07-22T09:01:48.896Z,33.6
2016-07-22T09:02:48.892Z,33.54
2016-07-22T09:03:48.945Z,33.69
2016-07-22T09:04:48.900Z,34.19
2016-07-22T09:05:48.900Z,34.59
2016-07-22T09:06:48.901Z,35.1
2016-07-22T09:07:48.904Z,35.64
2016-07-22T09:08:48.908Z,35.94
2016-07-22T09:09:48.909Z,36.2
2016-07-22T09:10:48.913Z,36.38
2016-07-22T09:11:48.916Z,36.53
2016-07-22T09:12:48.917Z,36.47
2016-07-22T09:13:48.921Z,36.29
2016-07-22T09:14:48.926Z,36.28
2016-07-22T09:15:48.925Z,36.17
2016-07-22T09:16:48.925Z,36.08
2016-07-22T09:17:48.929Z,36.05
2016-07-22T09:18:48.932Z,35.61
2016-07-22T09:19:48.932Z,35.45
2016-07-22T09:20:48.950Z,35.26
2016-07-22T09:21:48.937Z,34.82
2016-07-22T09:22:48.220Z,34.38
2016-07-22T09:23:48.941Z,34.16
2016-07-22T09:24:48.953Z,33.92
2016-07-22T09:25:48.949Z,33.92
2016-07-22T09:26:48.949Z,33.97
2016-07-22T09:27:48.957Z,34.03
2016-07-22T09:28:48.957Z,33.85
2016-07-22T09:29:48.957Z,33.61
2016-07-22T09:30:48.957Z,33.15
2016-07-22T09:31:48.961Z,32.83
2016-07-22T09:32:48.965Z,32.56
2016-07-22T09:33:48.969Z,32.34
2016-07-22T09:34:48.969Z,32.05
2016-07-22T09:35:48.974Z,31.63
2016-07-22T09:36:48.988Z,31.37
2016-07-22T09:37:48.977Z,31.14
2016-07-22T09:38:48.981Z,30.7
2016-07-22T09:39:48.985Z,30.44
2016-07-22T09:40:48.985Z,30.21
2016-07-22T09:41:49.000Z,29.98
2016-07-22T09:42:48.993Z,29.94
2016-07-22T09:43:49.041Z,29.87
2016-07-22T09:44:48.993Z,29.81
2016-07-22T09:45:48.998Z,29.69
2016-07-22T09:46:49.002Z,29.61
2016-07-22T09:47:49.001Z,29.47
2016-07-22T09:48:49.006Z,29.46
2016-07-22T09:49:49.005Z,29.49
2016-07-22T09:50:49.006Z,29.58
2016-07-22T09:51:49.019Z,29.62
2016-07-22T09:52:49.017Z,29.74
2016-07-22T09:53:49.018Z,29.68
2016-07-22T09:54:49.025Z,29.79
2016-07-22T09:55:49.122Z,29.86
2016-07-22T09:56:49.026Z,29.81
2016-07-22T09:57:49.029Z,29.76
2016-07-22T09:58:49.029Z,29.71
2016-07-22T09:59:49.025Z,29.68
2016-07-22T10:00:48.314Z,29.8
2016-07-22T10:01:49.037Z,29.83
2016-07-22T10:02:49.041Z,29.86
2016-07-22T10:03:49.042Z,29.71
2016-07-22T10:04:49.045Z,29.58
2016-07-22T10:05:49.049Z,29.64
2016-07-22T10:06:49.050Z,29.73
2016-07-22T10:07:49.053Z,29.86
2016-07-22T10:08:49.058Z,29.95
2016-07-22T10:09:49.058Z,30.11
2016-07-22T10:10:49.066Z,30.29
2016-07-22T10:11:49.061Z,30.35
2016-07-22T10:12:49.065Z,30.49
2016-07-22T10:13:49.078Z,30.46
2016-07-22T10:14:49.070Z,30.39
2016-07-22T10:15:49.074Z,30.31
2016-07-22T10:16:49.077Z,30.1
2016-07-22T10:17:49.078Z,29.81
2016-07-22T10:18:49.082Z,29.62
2016-07-22T10:19:49.092Z,29.53
2016-07-22T10:20:49.086Z,29.59
2016-07-22T10:21:49.090Z,29.69
2016-07-22T10:22:49.095Z,29.76
2016-07-22T10:23:49.094Z,29.95
2016-07-22T10:24:49.099Z,30.11
2016-07-22T10:25:49.094Z,30.36
2016-07-22T10:26:49.103Z,30.49
2016-07-22T10:27:49.117Z,30.69
2016-07-22T10:28:49.110Z,30.71
2016-07-22T10:29:49.111Z,30.74
2016-07-22T10:30:49.114Z,30.83
2016-07-22T10:31:49.114Z,30.92
2016-07-22T10:32:49.119Z,30.89
2016-07-22T10:33:49.123Z,30.78
2016-07-22T10:34:48.403Z,30.83
2016-07-22T10:35:49.126Z,30.71
2016-07-22T10:36:49.131Z,30.74
2016-07-22T10:37:49.131Z,30.74
2016-07-22T10:38:49.135Z,30.69
2016-07-22T10:39:49.139Z,30.39
2016-07-22T10:40:49.138Z,30.14
2016-07-22T10:41:49.151Z,30.01
2016-07-22T10:42:49.147Z,30.05
2016-07-22T10:43:49.148Z,29.95
2016-07-22T10:44:49.152Z,30.1
2016-07-22T10:45:49.155Z,29.98
2016-07-22T10:46:49.155Z,29.83
2016-07-22T10:47:49.207Z,29.84
2016-07-22T10:48:49.159Z,29.67
2016-07-22T10:49:49.163Z,29.64
2016-07-22T10:50:49.179Z,29.67
2016-07-22T10:51:49.167Z,29.84
2016-07-22T10:52:49.203Z,29.94
2016-07-22T10:53:49.179Z,29.92
2016-07-22T10:54:49.175Z,29.9
2016-07-22T10:55:49.180Z,29.89
2016-07-22T10:56:49.183Z,29.84
2016-07-22T10:57:49.187Z,29.73
2016-07-22T10:58:49.184Z,29.69
2016-07-22T10:59:49.191Z,29.71
2016-07-22T11:00:49.192Z,29.8
2016-07-22T11:01:49.196Z,29.76
2016-07-22T11:02:49.200Z,29.68
2016-07-22T11:03:49.204Z,29.44
2016-07-22T11:04:49.204Z,29.34
2016-07-22T11:05:49.208Z,29.32
2016-07-22T11:06:49.212Z,29.24
2016-07-22T11:07:49.212Z,29.25
2016-07-22T11:08:49.217Z,29.22
2016-07-22T11:09:49.212Z,29.34
2016-07-22T11:10:48.500Z,29.25
2016-07-22T11:11:49.225Z,29.15
2016-07-22T11:12:49.224Z,29.21
2016-07-22T11:13:49.224Z,29.21
2016-07-22T11:14:49.232Z,29.16
2016-07-22T11:15:49.237Z,29.27
2016-07-22T11:16:49.237Z,29.27
2016-07-22T11:17:49.241Z,29.27
2016-07-22T11:18:49.244Z,29.22
2016-07-22T11:19:49.244Z,29.24
2016-07-22T11:20:49.249Z,29.31
2016-07-22T11:21:49.248Z,29.27
2016-07-22T11:22:49.253Z,29.22
2016-07-22T11:23:49.256Z,29.3
2016-07-22T11:24:49.257Z,29.27
2016-07-22T11:25:49.261Z,29.37
2016-07-22T11:26:49.268Z,29.37
2016-07-22T11:27:49.265Z,29.55
2016-07-22T11:28:49.269Z,29.71
2016-07-22T11:29:49.272Z,29.89
2016-07-22T11:30:49.277Z,29.95
2016-07-22T11:31:49.277Z,30.08
2016-07-22T11:32:49.281Z,30.02
2016-07-22T11:33:49.293Z,30.08
2016-07-22T11:34:49.286Z,30.08
2016-07-22T11:35:49.289Z,30.24
2016-07-22T11:36:49.289Z,30.35
2016-07-22T11:37:49.293Z,30.55
2016-07-22T11:38:49.297Z,30.7
2016-07-22T11:39:49.298Z,30.83
2016-07-22T11:40:49.305Z,30.91
2016-07-22T11:41:49.305Z,30.93
2016-07-22T11:42:49.305Z,30.96
2016-07-22T11:43:49.362Z,30.95
2016-07-22T11:44:49.313Z,30.93
2016-07-22T11:45:49.314Z,31
2016-07-22T11:46:49.318Z,30.99
2016-07-22T11:47:49.329Z,31.08
2016-07-22T11:48:48.602Z,31.18
2016-07-22T11:49:49.326Z,31.3
2016-07-22T11:50:49.334Z,31.36
2016-07-22T11:51:49.329Z,31.22
2016-07-22T11:52:49.337Z,31.2
2016-07-22T11:53:49.337Z,31.07
2016-07-22T11:54:49.337Z,30.95
2016-07-22T11:55:49.341Z,30.92
2016-07-22T11:56:49.357Z,30.76
2016-07-22T11:57:49.346Z,30.76
2016-07-22T11:58:49.353Z,30.63
2016-07-22T11:59:49.354Z,30.62
2016-07-22T12:00:49.353Z,30.35
2016-07-22T12:01:49.363Z,30.17
2016-07-22T12:02:49.367Z,30.06
2016-07-22T12:03:49.362Z,29.89
2016-07-22T12:04:49.367Z,29.65
2016-07-22T12:05:49.370Z,29.62
2016-07-22T12:06:49.370Z,29.4
2016-07-22T12:07:49.374Z,29.24
2016-07-22T12:08:49.378Z,29.15
2016-07-22T12:09:49.378Z,28.97
2016-07-22T12:10:49.382Z,28.9
2016-07-22T12:11:49.388Z,28.93
2016-07-22T12:12:49.386Z,28.93
2016-07-22T12:13:49.390Z,28.94
2016-07-22T12:14:49.707Z,29.1
2016-07-22T12:15:49.394Z,29.18
2016-07-22T12:16:49.398Z,29.21
2016-07-22T12:17:49.403Z,29.24
2016-07-22T12:18:49.403Z,29.28
2016-07-22T12:19:49.406Z,29.35
2016-07-22T12:20:49.411Z,29.47
2016-07-22T12:21:49.406Z,29.49
2016-07-22T12:22:49.415Z,29.47
2016-07-22T12:23:49.425Z,29.53
2016-07-22T12:24:49.439Z,29.67
2016-07-22T12:25:49.418Z,29.67
2016-07-22T12:26:49.442Z,29.59
2016-07-22T12:27:49.439Z,29.67
2016-07-22T12:28:49.431Z,29.76
2016-07-22T12:29:49.435Z,29.76
2016-07-22T12:30:49.435Z,29.57
2016-07-22T12:31:49.439Z,29.59
2016-07-22T12:32:49.444Z,29.52
2016-07-22T12:33:49.443Z,29.52
2016-07-22T12:34:49.447Z,29.59
2016-07-22T12:35:49.450Z,29.71
2016-07-22T12:36:49.456Z,29.69
2016-07-22T12:37:49.455Z,29.69
2016-07-22T12:38:49.468Z,29.83
2016-07-22T12:39:49.464Z,29.83
2016-07-22T12:40:49.469Z,29.8
2016-07-22T12:41:49.467Z,29.67
2016-07-22T12:42:49.473Z,29.57
2016-07-22T12:43:49.475Z,29.43
2016-07-22T12:44:49.475Z,29.35
2016-07-22T12:45:49.479Z,29.4
2016-07-22T12:46:49.483Z,29.35
2016-07-22T12:47:49.483Z,29.43
2016-07-22T12:48:49.487Z,29.37
2016-07-22T12:49:49.487Z,29.3
2016-07-22T12:50:49.492Z,29.3
2016-07-22T12:51:49.495Z,29.18
2016-07-22T12:52:49.496Z,29.16
2016-07-22T12:53:49.499Z,29.18
2016-07-22T12:54:49.504Z,29.07
2016-07-22T12:55:49.503Z,29.16